sensor_id;sensor_type;location;lat;lon;timestamp;P1;durP1;ratioP1;P2;durP2;ratioP2
22571;SDS011;11452;53.368;14.658;2023-03-03T09:35:00;17.37;;;8.70;;
22571;SDS011;11452;53.368;14.658;2023-03-03T09:40:18;18.53;;;10.00;;
22571;SDS011;11452;53.368;14.658;2023-03-03T09:45:39;14.80;;;7.83;;
22571;SDS011;11452;53.368;14.658;2023-03-03T09:50:49;14.63;;;8.67;;
22571;SDS011;11452;53.368;14.658;2023-03-03T09:56:06;18.97;;;9.00;;
22571;SDS011;11452;53.368;14.658;2023-03-03T10:06:37;13.13;;;8.13;;
22571;SDS011;11452;53.368;14.658;2023-03-03T10:11:49;14.10;;;7.90;;
22571;SDS011;11452;53.368;14.658;2023-03-03T10:38:23;14.50;;;8.60;;
22571;SDS011;11452;53.368;14.658;2023-03-03T10:43:36;16.17;;;8.83;;
22571;SDS011;11452;53.368;14.658;2023-03-03T10:48:52;17.67;;;9.67;;
22571;SDS011;11452;53.368;14.658;2023-03-03T10:59:19;14.83;;;8.83;;
22571;SDS011;11452;53.368;14.658;2023-03-03T11:04:41;12.83;;;8.13;;
22571;SDS011;11452;53.368;14.658;2023-03-03T11:15:20;14.47;;;8.23;;
22571;SDS011;11452;53.368;14.658;2023-03-03T11:20:34;12.87;;;8.17;;
22571;SDS011;11452;53.368;14.658;2023-03-03T11:31:04;13.47;;;8.37;;
22571;SDS011;11452;53.368;14.658;2023-03-03T11:41:30;14.70;;;9.07;;
22571;SDS011;11452;53.368;14.658;2023-03-03T11:51:59;14.73;;;7.83;;
22571;SDS011;11452;53.368;14.658;2023-03-03T11:57:10;12.43;;;8.10;;
22571;SDS011;11452;53.368;14.658;2023-03-03T12:08:06;9.80;;;7.37;;
22571;SDS011;11452;53.368;14.658;2023-03-03T12:13:22;12.87;;;8.47;;
22571;SDS011;11452;53.368;14.658;2023-03-03T12:18:34;13.10;;;7.47;;
22571;SDS011;11452;53.368;14.658;2023-03-03T12:29:18;13.13;;;7.50;;
22571;SDS011;11452;53.368;14.658;2023-03-03T12:39:57;12.17;;;7.70;;
22571;SDS011;11452;53.368;14.658;2023-03-03T12:50:43;11.93;;;6.70;;
22571;SDS011;11452;53.368;14.658;2023-03-03T12:56:12;10.73;;;7.87;;
22571;SDS011;11452;53.368;14.658;2023-03-03T13:01:21;11.57;;;7.27;;
22571;SDS011;11452;53.368;14.658;2023-03-03T13:06:30;12.43;;;7.80;;
22571;SDS011;11452;53.368;14.658;2023-03-03T13:22:20;15.67;;;8.53;;
22571;SDS011;11452;53.368;14.658;2023-03-03T13:27:39;10.60;;;7.13;;
22571;SDS011;11452;53.368;14.658;2023-03-03T13:32:56;12.20;;;7.20;;
22571;SDS011;11452;53.368;14.658;2023-03-03T13:38:27;11.77;;;7.73;;
22571;SDS011;11452;53.368;14.658;2023-03-03T13:43:42;12.73;;;7.60;;
22571;SDS011;11452;53.368;14.658;2023-03-03T13:49:07;13.27;;;8.20;;
22571;SDS011;11452;53.368;14.658;2023-03-03T14:05:03;12.53;;;8.30;;
22571;SDS011;11452;53.368;14.658;2023-03-03T14:15:29;13.17;;;8.53;;
22571;SDS011;11452;53.368;14.658;2023-03-03T14:20:47;10.80;;;8.03;;
22571;SDS011;11452;53.368;14.658;2023-03-03T14:25:56;10.37;;;7.97;;
22571;SDS011;11452;53.368;14.658;2023-03-03T14:31:13;9.77;;;7.30;;
22571;SDS011;11452;53.368;14.658;2023-03-03T14:36:28;11.47;;;8.00;;
22571;SDS011;11452;53.368;14.658;2023-03-03T14:41:40;10.50;;;7.60;;
22571;SDS011;11452;53.368;14.658;2023-03-03T14:46:45;10.10;;;6.97;;
22571;SDS011;11452;53.368;14.658;2023-03-03T14:51:52;7.77;;;6.70;;
22571;SDS011;11452;53.368;14.658;2023-03-03T14:57:06;11.00;;;6.57;;
22571;SDS011;11452;53.368;14.658;2023-03-03T15:07:31;11.30;;;6.93;;
22571;SDS011;11452;53.368;14.658;2023-03-03T15:12:37;9.93;;;6.80;;
22571;SDS011;11452;53.368;14.658;2023-03-03T15:23:30;10.07;;;6.97;;
22571;SDS011;11452;53.368;14.658;2023-03-03T15:39:44;12.40;;;9.10;;
22571;SDS011;11452;53.368;14.658;2023-03-03T16:06:21;12.43;;;8.30;;
22571;SDS011;11452;53.368;14.658;2023-03-03T16:17:25;11.30;;;7.63;;
22571;SDS011;11452;53.368;14.658;2023-03-03T16:22:45;11.67;;;7.77;;
22571;SDS011;11452;53.368;14.658;2023-03-03T16:38:25;8.87;;;7.10;;
22571;SDS011;11452;53.368;14.658;2023-03-03T16:54:25;8.70;;;7.23;;
22571;SDS011;11452;53.368;14.658;2023-03-03T17:00:03;9.77;;;6.87;;
22571;SDS011;11452;53.368;14.658;2023-03-03T17:05:26;9.13;;;6.50;;
22571;SDS011;11452;53.368;14.658;2023-03-03T17:10:41;10.97;;;7.27;;
22571;SDS011;11452;53.368;14.658;2023-03-03T17:21:27;11.53;;;7.20;;
22571;SDS011;11452;53.368;14.658;2023-03-03T17:26:44;10.33;;;7.23;;
22571;SDS011;11452;53.368;14.658;2023-03-03T17:42:46;10.70;;;7.67;;
22571;SDS011;11452;53.368;14.658;2023-03-03T17:58:46;11.90;;;7.43;;
22571;SDS011;11452;53.368;14.658;2023-03-03T18:04:07;10.97;;;7.47;;
22571;SDS011;11452;53.368;14.658;2023-03-03T18:09:18;12.97;;;7.73;;
22571;SDS011;11452;53.368;14.658;2023-03-03T18:14:29;11.13;;;7.67;;
22571;SDS011;11452;53.368;14.658;2023-03-03T18:31:14;12.03;;;8.13;;
22571;SDS011;11452;53.368;14.658;2023-03-03T18:41:32;10.30;;;7.10;;
22571;SDS011;11452;53.368;14.658;2023-03-03T19:07:19;12.93;;;7.70;;
22571;SDS011;11452;53.368;14.658;2023-03-03T19:17:51;16.53;;;9.53;;
22571;SDS011;11452;53.368;14.658;2023-03-03T19:23:13;13.87;;;9.43;;
22571;SDS011;11452;53.368;14.658;2023-03-03T19:28:25;16.27;;;8.70;;
22571;SDS011;11452;53.368;14.658;2023-03-03T19:33:39;15.27;;;9.63;;
22571;SDS011;11452;53.368;14.658;2023-03-03T19:38:52;15.97;;;9.77;;
22571;SDS011;11452;53.368;14.658;2023-03-03T19:44:05;15.57;;;10.03;;
22571;SDS011;11452;53.368;14.658;2023-03-03T20:16:51;17.37;;;10.87;;
22571;SDS011;11452;53.368;14.658;2023-03-03T20:23:04;15.00;;;10.97;;
22571;SDS011;11452;53.368;14.658;2023-03-03T20:27:34;21.47;;;11.90;;
22571;SDS011;11452;53.368;14.658;2023-03-03T20:33:47;20.47;;;12.83;;
22571;SDS011;11452;53.368;14.658;2023-03-03T20:38:28;18.43;;;11.53;;
22571;SDS011;11452;53.368;14.658;2023-03-03T20:49:04;20.40;;;11.70;;
22571;SDS011;11452;53.368;14.658;2023-03-03T20:59:36;17.23;;;11.90;;
22571;SDS011;11452;53.368;14.658;2023-03-03T21:04:43;19.20;;;11.53;;
22571;SDS011;11452;53.368;14.658;2023-03-03T21:09:48;12.67;;;10.13;;
22571;SDS011;11452;53.368;14.658;2023-03-03T21:15:03;16.00;;;10.47;;
22571;SDS011;11452;53.368;14.658;2023-03-03T21:20:45;14.93;;;11.60;;
22571;SDS011;11452;53.368;14.658;2023-03-03T21:36:42;14.67;;;10.73;;
22571;SDS011;11452;53.368;14.658;2023-03-03T21:41:51;15.70;;;10.43;;
22571;SDS011;11452;53.368;14.658;2023-03-03T21:46:59;13.10;;;10.20;;
22571;SDS011;11452;53.368;14.658;2023-03-03T21:52:04;13.07;;;10.07;;
22571;SDS011;11452;53.368;14.658;2023-03-03T21:57:10;13.40;;;9.37;;
22571;SDS011;11452;53.368;14.658;2023-03-03T22:02:16;15.67;;;9.93;;
22571;SDS011;11452;53.368;14.658;2023-03-03T22:07:21;14.67;;;10.30;;
22571;SDS011;11452;53.368;14.658;2023-03-03T22:12:27;13.23;;;10.37;;
22571;SDS011;11452;53.368;14.658;2023-03-03T22:17:33;15.50;;;9.80;;
22571;SDS011;11452;53.368;14.658;2023-03-03T22:22:38;13.53;;;9.90;;
22571;SDS011;11452;53.368;14.658;2023-03-03T22:27:44;19.20;;;9.90;;
22571;SDS011;11452;53.368;14.658;2023-03-03T22:32:49;14.57;;;9.87;;
22571;SDS011;11452;53.368;14.658;2023-03-03T22:37:57;15.37;;;8.90;;
22571;SDS011;11452;53.368;14.658;2023-03-03T22:43:03;12.93;;;9.13;;
22571;SDS011;11452;53.368;14.658;2023-03-03T22:48:09;14.07;;;10.20;;
22571;SDS011;11452;53.368;14.658;2023-03-03T22:53:15;12.67;;;8.97;;
22571;SDS011;11452;53.368;14.658;2023-03-03T22:58:21;14.73;;;10.30;;
22571;SDS011;11452;53.368;14.658;2023-03-03T23:03:31;15.13;;;9.57;;
22571;SDS011;11452;53.368;14.658;2023-03-03T23:08:37;14.53;;;9.43;;
22571;SDS011;11452;53.368;14.658;2023-03-03T23:13:42;13.47;;;10.20;;
22571;SDS011;11452;53.368;14.658;2023-03-03T23:18:48;14.63;;;10.20;;
22571;SDS011;11452;53.368;14.658;2023-03-03T23:23:53;13.97;;;10.07;;
22571;SDS011;11452;53.368;14.658;2023-03-03T23:28:59;13.27;;;9.57;;
22571;SDS011;11452;53.368;14.658;2023-03-03T23:34:04;15.83;;;9.97;;
22571;SDS011;11452;53.368;14.658;2023-03-03T23:39:10;14.57;;;10.07;;
22571;SDS011;11452;53.368;14.658;2023-03-03T23:44:15;16.07;;;10.10;;
22571;SDS011;11452;53.368;14.658;2023-03-03T23:49:21;14.33;;;10.03;;
22571;SDS011;11452;53.368;14.658;2023-03-03T23:54:26;17.43;;;10.83;;
22571;SDS011;11452;53.368;14.658;2023-03-03T23:59:32;14.10;;;9.80;;
